KPRO/PRO METAR and TAF weather

Enter ICAO airport designator
Station Type Date Time Source
KPRO METAR 2019/12/12 17:15 UTC NOAA

KPRO 121715Z AUTO 25015G19KT 10SM OVC024 05/00 A2999 RMK AO2 T00500001


Station Type Date Time Source
KPRO Decoded METAR 2019/12/12 17:15 UTC NOAA

Station name not available
Dec 12, 2019 - 12:15 PM EST / 2019.12.12 1715 UTC
Wind: from the WSW (250 degrees) at 17 MPH (15 KT) gusting to 22 MPH (19 KT):0
Visibility: 10 mile(s):0
Sky conditions: overcast
Temperature: 41.0 F (5.0 C)
Dew Point: 32.2 F (0.1 C)
Relative Humidity: 70%
Pressure (altimeter): 29.99 in. Hg (1015 hPa)
ob: KPRO 121715Z AUTO 25015G19KT 10SM OVC024 05/00 A2999 RMK AO2 T00500001
cycle: 17

Station Type Date Time Source
KPRO TAF UTC NOAA

Error!

Example: see airport list